aviador You're here:

KAUS Decoded Metar

AUSTIN in TX, USA
Report Time2017-10-21 15:27:00
UTC Time2017-10-21 15:36:05
Flight Rules mvfr MVFR
Wind200° at 12 Gusting to 17 kt
W.Decomp.*RWY 17: 11.0 kt HW 4.9 kt RCW
W.Rank200° ranks 6
Current wind is above 200° avg. (8.3)
Visibility9999 m
Phenomena:N/A
Clouds:Broken 015 Hf
Broken 026 Hf
Broken 200 Hf
Expected CloudBase > 1,600 ft AGL from Temp-Dew spread
Ceiling1,500 ft
Temp26°C (ISA +12)
Dew Point22°C (79% RH)
QNH1014 hPa
Density Alt2,257 ft
Elevation545 ft
Report Wrong Elevation
Raw Report
KAUS 211527Z 20012G17KT 10SM BKN015 BKN026 BKN200 26/22 A2994 RMK
AO2 T02610222 $=

Extra information for KAUS:More info

Metar Taf Metar & Taf Last 4 Metars F.Rules Stats Wind Profile Meteogram Temp Stats Airport Information Weather charts Add Link Nearby VenuesMetar ALERT Operation Metar Decoded Social comments

AIRNAV info for KAUS